Airfield :
LOGIN :

Register | Disclaimer

   EN    FR    IT 

 










Legend :    VFR   Marginal VFR   IFR   Intensive IFR   Very Intensive IFR
Visi :
Ceiling :
>= 8 km
>= 3000ft
5 to 8 km
1000 to 3000 ft
1500m to 5 km
500 to 1000 ft
800 to 1500m
200 to 500 ft
< 800m
< 200 ft
Symbols :   Thunderstorms  Fog  Heavy snow  Heavy precipitations  Wind > 20 kt
SIGMETs :     Misc.  Thunderstorms  Icing  Turbulence  Mountain Waves  Volcanic Ashes






- Airport Elevation : 1197 ft
- IATA code : SPM


ETAD - Spangdahlem Ab

CURRENT METAR :
  • 010056Z 22004KT 9000 -FZRA BR OVC003 M01/M01 A2998 RMK AO2A CIG 002 RWY05 SLP162 P0000 T10071007 $

EXPIRED METARs :
  • 302356Z 22007KT 8000 -FZRA BR OVC004 M01/M01 A3000 RMK AO2A VIS 4000 RWY05/23 SNE2258FZRAB2258E01UPB01E21FZDZB36E39FZRAB39 CIG 003 RWY05 SLP169 P0000 60001 T10091009 10002 21011 57024 $
  • 302338Z 22007KT 9000 -FZDZ BR OVC004 M01/M01 A3001 RMK AO2A SNE2258FZRAB2258E01UPB01E21FZDZB36 CIG 003 RWY05 SLP173 $
  • 302321Z 22007KT 9000 BR OVC005 M01/M01 A3002 RMK AO2A SNE2258FZRAB2258E01UPB01E21 CIG 004 RWY05 SLP178 $
  • 302256Z 22006KT 9000 -SN BR OVC005 M01/M01 A3003 RMK AO2A SNE13FZRAB13E37SNB37 SLP181 P0000 T10091009 400181073 $
  • 302224Z 22008KT 9000 -FZRA BR OVC005 M01/M01 A3005 RMK SNE13FZRAB13 CIG 004 RWY05 SLP188 $

TAF AMD TAF ETAD
Valid from the 30 at 22:00 until the 02 at 03:00 UTC


302230Z 3022/0203 21005KT 5000 -FZRA BKN006 660002 QNH3001INS
BECMG 3021/3022 20005KT 3200 -FZRA BKN007 660002 QNH2996INS
BECMG 0103/0104 23007KT 8000 -RASN BKN005 QNH2995INS
BECMG 0105/0106 25006KT 9999 NSW BKN007 QNH2998INS
BECMG 0112/0113 24003KT 8000 -SHRA OVC005 QNH2991INS
BECMG 0119/0120 07003KT 9999 NSW SCT006 OVC015 QNH2999INS TX04/0111Z TNM02/3022Z



MET'MAP, your aeronautical weather chart ! - Copyright ORBIFLY December 2007 - Disclaimer

ORBIFLY MET'MAP TEAM :

Programming & Development : Alexandra Zaïnal
Concept & original design : Baudouin d'Aumeries
Assistance for programming : Marc-Olivier Méhu
Technical & hardware support : Manuel Goepfert

Contact : metmap@orbifly.com




SOURCES & CREDITS :

   NOAA